createdAt,value
2023-02-23T00:02:16.541Z,5.85
2023-02-23T00:04:59.182Z,5.82
2023-02-23T00:07:45.075Z,5.68
2023-02-23T00:10:30.486Z,5.88
2023-02-23T00:13:13.548Z,6.13
2023-02-23T00:15:56.400Z,5.25
2023-02-23T00:18:45.070Z,5.70
2023-02-23T00:21:29.540Z,5.90
2023-02-23T00:24:15.360Z,5.93
2023-02-23T00:26:58.161Z,6.13
2023-02-23T00:29:40.818Z,5.38
2023-02-23T00:32:24.169Z,5.75
2023-02-23T00:35:11.289Z,5.13
2023-02-23T00:37:53.863Z,5.78
2023-02-23T00:40:40.728Z,5.60
2023-02-23T00:43:25.100Z,6.15
2023-02-23T00:46:08.402Z,6.05
2023-02-23T00:48:51.521Z,5.97
2023-02-23T00:51:37.894Z,5.50
2023-02-23T00:54:21.695Z,5.65
2023-02-23T00:57:05.698Z,5.53
2023-02-23T00:59:48.274Z,6.05
2023-02-23T01:02:31.346Z,5.85
2023-02-23T01:05:14.264Z,6.07
2023-02-23T01:07:56.884Z,5.95
2023-02-23T01:10:43.551Z,5.63
2023-02-23T01:13:29.059Z,5.53
2023-02-23T01:16:14.105Z,5.45
2023-02-23T01:18:58.044Z,5.80
2023-02-23T01:21:42.997Z,6.00
2023-02-23T01:24:25.860Z,6.07
2023-02-23T01:27:08.517Z,5.80
2023-02-23T01:29:52.511Z,6.30
2023-02-23T01:32:35.731Z,5.80
2023-02-23T01:35:18.413Z,6.20
2023-02-23T01:38:01.047Z,6.00
2023-02-23T01:40:44.098Z,6.32
2023-02-23T01:43:26.963Z,6.13
2023-02-23T01:46:10.982Z,6.30
2023-02-23T01:48:56.448Z,6.18
2023-02-23T01:51:42.883Z,6.05
2023-02-23T01:54:28.928Z,6.28
2023-02-23T01:57:12.930Z,5.90
2023-02-23T01:59:56.044Z,5.85
2023-02-23T02:02:40.389Z,5.80
2023-02-23T02:05:23.202Z,6.40
2023-02-23T02:08:06.896Z,6.65
2023-02-23T02:10:55.665Z,6.20
2023-02-23T02:13:38.304Z,6.15
2023-02-23T02:16:31.288Z,6.28
2023-02-23T02:19:29.166Z,6.20
2023-02-23T02:22:37.588Z,7.32
2023-02-23T02:25:27.363Z,6.72
2023-02-23T02:28:24.830Z,6.43
2023-02-23T02:31:22.503Z,7.03
2023-02-23T02:34:18.290Z,7.40
2023-02-23T02:37:26.657Z,7.07
2023-02-23T02:40:16.637Z,7.63
2023-02-23T02:43:01.331Z,7.10
2023-02-23T02:45:50.645Z,7.53
2023-02-23T02:48:38.572Z,7.10
2023-02-23T02:51:23.510Z,7.60
2023-02-23T02:54:11.112Z,7.65
2023-02-23T02:56:57.629Z,7.80
2023-02-23T03:00:03.251Z,8.00
2023-02-23T03:03:03.941Z,7.32
2023-02-23T03:06:06.663Z,7.80
2023-02-23T03:09:09.059Z,8.27
2023-02-23T03:12:24.528Z,7.68
2023-02-23T03:15:32.058Z,7.65
2023-02-23T03:18:40.253Z,8.02
2023-02-23T03:21:44.241Z,8.43
2023-02-23T03:24:50.542Z,8.20
2023-02-23T03:27:58.558Z,8.55
2023-02-23T03:31:06.194Z,8.20
2023-02-23T03:34:11.054Z,8.23
2023-02-23T03:37:17.161Z,7.72
2023-02-23T03:40:20.951Z,7.82
2023-02-23T03:43:25.226Z,8.45
2023-02-23T03:46:27.442Z,8.27
2023-02-23T03:49:29.442Z,8.43
2023-02-23T03:52:33.156Z,7.50
2023-02-23T03:55:35.549Z,7.60
2023-02-23T03:58:38.407Z,7.75
2023-02-23T04:01:39.973Z,7.40
2023-02-23T04:04:40.624Z,7.88
2023-02-23T04:07:41.481Z,7.88
2023-02-23T04:10:41.883Z,8.23
2023-02-23T04:13:25.760Z,7.90
2023-02-23T04:16:08.999Z,7.80
2023-02-23T04:18:51.662Z,8.70
2023-02-23T04:21:34.224Z,6.72
2023-02-23T04:24:16.828Z,6.97
2023-02-23T04:26:59.408Z,7.45
2023-02-23T04:29:43.501Z,7.03
2023-02-23T04:32:26.300Z,8.02
2023-02-23T04:35:09.299Z,7.88
2023-02-23T04:37:51.901Z,7.63
2023-02-23T04:40:34.888Z,8.65
2023-02-23T04:43:17.642Z,8.32
2023-02-23T04:46:01.971Z,8.32
2023-02-23T04:48:44.550Z,8.52
2023-02-23T04:51:30.750Z,8.52
2023-02-23T04:54:13.349Z,8.57
2023-02-23T04:56:56.027Z,9.30
2023-02-23T04:59:38.831Z,9.00
2023-02-23T05:02:22.765Z,9.00
2023-02-23T05:05:05.696Z,8.00
2023-02-23T05:07:48.420Z,8.48
2023-02-23T05:10:31.077Z,9.40
2023-02-23T05:13:13.646Z,9.70
2023-02-23T05:15:57.540Z,8.57
2023-02-23T05:18:41.481Z,9.15
2023-02-23T05:21:24.964Z,9.98
2023-02-23T05:24:08.026Z,9.40
2023-02-23T05:26:50.633Z,8.48
2023-02-23T05:29:33.256Z,9.27
2023-02-23T05:32:16.012Z,9.10
2023-02-23T05:35:00.011Z,9.02
2023-02-23T05:37:42.770Z,8.98
2023-02-23T05:40:25.404Z,8.88
2023-02-23T05:43:07.999Z,10.05
2023-02-23T05:45:50.718Z,8.65
2023-02-23T05:48:34.153Z,9.50
2023-02-23T05:51:19.531Z,9.65
2023-02-23T05:54:02.408Z,9.50
2023-02-23T05:56:44.975Z,9.45
2023-02-23T05:59:27.620Z,8.40
2023-02-23T06:02:10.219Z,8.82
2023-02-23T06:04:52.862Z,10.30
2023-02-23T06:07:37.426Z,9.43
2023-02-23T06:10:20.115Z,9.82
2023-02-23T06:13:03.846Z,9.38
2023-02-23T06:15:46.450Z,10.23
2023-02-23T06:18:29.315Z,9.90
2023-02-23T06:21:11.933Z,10.20
2023-02-23T06:23:55.871Z,10.82
2023-02-23T06:26:38.441Z,11.38
2023-02-23T06:29:21.442Z,9.65
2023-02-23T06:32:04.153Z,8.93
2023-02-23T06:34:46.818Z,9.52
2023-02-23T06:37:29.463Z,9.32
2023-02-23T06:40:13.797Z,11.25
2023-02-23T06:42:56.446Z,11.70
2023-02-23T06:45:39.182Z,12.32
2023-02-23T06:48:21.827Z,12.25
2023-02-23T06:51:04.558Z,12.27
2023-02-23T06:53:47.193Z,13.75
2023-02-23T06:56:31.118Z,12.32
2023-02-23T06:59:13.726Z,12.68
2023-02-23T07:01:56.343Z,11.93
2023-02-23T07:04:38.943Z,12.38
2023-02-23T07:07:22.184Z,11.98
2023-02-23T07:10:05.238Z,13.48
2023-02-23T07:12:49.183Z,13.73
2023-02-23T07:15:31.777Z,13.35
2023-02-23T07:18:14.348Z,14.23
2023-02-23T07:20:56.961Z,14.65
2023-02-23T07:23:39.561Z,14.98
2023-02-23T07:26:22.122Z,13.98
2023-02-23T07:29:06.065Z,13.95
2023-02-23T07:31:49.882Z,13.63
2023-02-23T07:34:32.677Z,14.25
2023-02-23T07:37:15.477Z,14.82
2023-02-23T07:40:00.694Z,15.27
2023-02-23T07:42:44.621Z,11.68
2023-02-23T07:45:28.778Z,10.80
2023-02-23T07:48:11.426Z,17.35
2023-02-23T07:50:54.083Z,16.70
2023-02-23T07:53:36.706Z,10.95
2023-02-23T07:56:19.317Z,11.05
2023-02-23T07:59:02.108Z,17.50
2023-02-23T08:01:46.085Z,12.93
2023-02-23T08:04:28.797Z,12.23
2023-02-23T08:07:11.652Z,17.33
2023-02-23T08:09:54.618Z,17.35
2023-02-23T08:12:37.306Z,12.32
2023-02-23T08:15:20.093Z,13.23
2023-02-23T08:18:05.206Z,17.80
2023-02-23T08:20:47.926Z,17.25
2023-02-23T08:23:30.563Z,10.85
2023-02-23T08:26:13.168Z,13.95
2023-02-23T08:28:56.223Z,14.57
2023-02-23T08:31:38.907Z,12.55
2023-02-23T08:34:23.136Z,12.10
2023-02-23T08:37:05.857Z,13.00
2023-02-23T08:39:48.645Z,13.73
2023-02-23T08:42:31.273Z,13.38
2023-02-23T08:45:14.175Z,13.38
2023-02-23T08:47:56.844Z,13.20
2023-02-23T08:50:40.844Z,12.80
2023-02-23T08:53:25.743Z,13.43
2023-02-23T08:56:09.038Z,13.32
2023-02-23T08:58:52.371Z,12.40
2023-02-23T09:01:35.234Z,13.43
2023-02-23T09:04:18.483Z,14.13
2023-02-23T09:07:02.525Z,13.10
2023-02-23T09:09:45.289Z,13.48
2023-02-23T09:12:27.945Z,13.30
2023-02-23T09:15:11.063Z,13.10
2023-02-23T09:17:54.462Z,14.30
2023-02-23T09:20:37.215Z,13.77
2023-02-23T09:23:23.505Z,13.65
2023-02-23T09:26:06.674Z,14.20
2023-02-23T09:28:49.479Z,14.00
2023-02-23T09:31:34.780Z,14.48
2023-02-23T09:34:17.452Z,15.15
2023-02-23T09:37:02.337Z,15.98
2023-02-23T09:39:48.706Z,17.85
2023-02-23T09:42:37.889Z,15.02
2023-02-23T09:45:25.820Z,17.33
2023-02-23T09:48:11.585Z,17.70
2023-02-23T09:50:55.115Z,18.27
2023-02-23T09:53:39.787Z,18.92
2023-02-23T09:56:26.212Z,19.48
2023-02-23T09:59:13.443Z,19.73
2023-02-23T10:01:59.715Z,18.67
2023-02-23T10:04:44.280Z,19.67
2023-02-23T10:07:31.713Z,18.73
2023-02-23T10:10:19.712Z,19.40
2023-02-23T10:13:05.326Z,19.02
2023-02-23T10:15:51.029Z,19.52
2023-02-23T10:18:46.464Z,18.50
2023-02-23T10:21:32.658Z,18.48
2023-02-23T10:24:19.379Z,17.52
2023-02-23T10:27:05.316Z,13.32
2023-02-23T10:29:51.335Z,17.33
2023-02-23T10:32:38.974Z,18.00
2023-02-23T10:35:22.627Z,18.25
2023-02-23T10:38:05.236Z,17.77
2023-02-23T10:40:49.700Z,18.00
2023-02-23T10:43:32.342Z,17.85
2023-02-23T10:46:20.730Z,17.05
2023-02-23T10:49:04.149Z,16.92
2023-02-23T10:51:46.849Z,17.15
2023-02-23T10:54:36.640Z,18.00
2023-02-23T10:57:27.066Z,18.23
2023-02-23T11:00:27.883Z,18.73
2023-02-23T11:03:20.191Z,19.73
2023-02-23T11:06:03.119Z,16.10
2023-02-23T11:08:45.785Z,15.82
2023-02-23T11:11:28.949Z,15.70
2023-02-23T11:14:17.494Z,15.65
2023-02-23T11:17:00.927Z,14.23
2023-02-23T11:19:46.435Z,14.88
2023-02-23T11:22:32.616Z,14.90
2023-02-23T11:25:18.232Z,14.98
2023-02-23T11:28:01.223Z,15.27
2023-02-23T11:30:44.573Z,14.45
2023-02-23T11:33:31.528Z,14.93
2023-02-23T11:36:18.360Z,14.00
2023-02-23T11:39:08.702Z,11.63
2023-02-23T11:42:05.180Z,15.65
2023-02-23T11:44:52.090Z,16.08
2023-02-23T11:47:35.475Z,15.18
2023-02-23T11:50:22.568Z,16.05
2023-02-23T11:53:07.337Z,15.88
2023-02-23T11:55:50.947Z,15.90
2023-02-23T11:58:36.154Z,15.27
2023-02-23T12:01:21.012Z,15.43
2023-02-23T12:04:04.112Z,13.55
2023-02-23T12:06:46.855Z,11.65
2023-02-23T12:09:33.667Z,10.68
2023-02-23T12:12:19.400Z,17.35
2023-02-23T12:15:09.265Z,17.25
2023-02-23T12:17:54.588Z,13.65
2023-02-23T12:20:40.176Z,11.07
2023-02-23T12:23:25.743Z,11.35
2023-02-23T12:26:13.958Z,10.35
2023-02-23T12:29:00.173Z,17.50
2023-02-23T12:31:45.608Z,16.05
2023-02-23T12:34:31.578Z,12.20
2023-02-23T12:37:19.418Z,14.80
2023-02-23T12:40:05.182Z,16.23
2023-02-23T12:42:53.510Z,12.52
2023-02-23T12:45:38.296Z,11.60
2023-02-23T12:48:29.778Z,16.08
2023-02-23T12:51:19.161Z,16.92
2023-02-23T12:54:02.242Z,12.13
2023-02-23T12:56:51.323Z,12.85
2023-02-23T12:59:47.323Z,15.38
2023-02-23T13:02:32.240Z,13.40
2023-02-23T13:05:19.972Z,10.90
2023-02-23T13:08:13.767Z,11.30
2023-02-23T13:11:01.912Z,11.27
2023-02-23T13:13:49.640Z,14.52
2023-02-23T13:16:35.194Z,10.75
2023-02-23T13:19:21.361Z,9.82
2023-02-23T13:22:12.013Z,15.48
2023-02-23T13:24:56.318Z,13.13
2023-02-23T13:27:41.464Z,11.18
2023-02-23T13:30:24.119Z,10.55
2023-02-23T13:33:13.237Z,14.65
2023-02-23T13:35:56.307Z,13.52
2023-02-23T13:38:42.511Z,9.65
2023-02-23T13:41:31.681Z,12.88
2023-02-23T13:44:18.630Z,12.93
2023-02-23T13:47:04.813Z,14.45
2023-02-23T13:49:52.700Z,13.35
2023-02-23T13:52:39.751Z,11.98
2023-02-23T13:55:48.808Z,11.77
2023-02-23T13:58:33.212Z,11.35
2023-02-23T14:01:17.424Z,12.63
2023-02-23T14:04:02.321Z,11.50
2023-02-23T14:06:53.951Z,11.98
2023-02-23T14:09:38.465Z,12.55
2023-02-23T14:12:25.320Z,11.90
2023-02-23T14:15:28.029Z,12.25
2023-02-23T14:18:37.605Z,12.27
2023-02-23T14:21:25.702Z,11.55
2023-02-23T14:24:18.587Z,12.20
2023-02-23T14:27:38.446Z,11.40
2023-02-23T14:30:26.953Z,10.70
2023-02-23T14:33:30.146Z,11.00
2023-02-23T14:36:30.270Z,10.55
2023-02-23T14:39:18.986Z,10.68
2023-02-23T14:42:07.173Z,9.48
2023-02-23T14:44:51.492Z,9.38
2023-02-23T14:47:43.224Z,9.50
2023-02-23T14:50:27.342Z,8.55
2023-02-23T14:53:15.042Z,9.25
2023-02-23T14:55:59.676Z,8.30
2023-02-23T14:58:42.331Z,8.27
2023-02-23T15:01:34.644Z,7.82
2023-02-23T15:04:18.496Z,7.70
2023-02-23T15:07:02.570Z,7.53
2023-02-23T15:09:46.154Z,7.25
2023-02-23T15:12:31.759Z,7.82
2023-02-23T15:15:17.732Z,7.68
2023-02-23T15:18:02.983Z,6.47
2023-02-23T15:20:46.421Z,7.95
2023-02-23T15:23:37.471Z,6.45
2023-02-23T15:26:24.475Z,6.93
2023-02-23T15:29:14.334Z,7.65
2023-02-23T15:31:58.441Z,7.45
2023-02-23T15:34:41.239Z,8.15
2023-02-23T15:37:30.229Z,7.43
2023-02-23T15:40:14.917Z,8.27
2023-02-23T15:43:00.671Z,8.65
2023-02-23T15:45:46.759Z,8.57
2023-02-23T15:48:42.705Z,8.68
2023-02-23T15:51:29.300Z,7.30
2023-02-23T15:54:15.663Z,7.28
2023-02-23T15:56:59.437Z,7.13
2023-02-23T15:59:42.113Z,7.78
2023-02-23T16:02:26.500Z,7.60
2023-02-23T16:05:11.818Z,6.85
2023-02-23T16:08:06.274Z,6.15
2023-02-23T16:10:50.219Z,5.65
2023-02-23T16:13:33.024Z,5.93
2023-02-23T16:16:19.472Z,5.68
2023-02-23T16:19:05.007Z,6.20
2023-02-23T16:21:50.326Z,6.13
2023-02-23T16:24:32.968Z,6.68
2023-02-23T16:27:15.805Z,6.85
2023-02-23T16:30:01.069Z,5.65
2023-02-23T16:32:44.813Z,5.47
2023-02-23T16:35:34.723Z,4.20
2023-02-23T16:38:23.492Z,2.75
2023-02-23T16:41:06.809Z,3.08
2023-02-23T16:43:50.511Z,2.80
2023-02-23T16:46:36.401Z,2.10
2023-02-23T16:49:19.917Z,2.10
2023-02-23T16:52:05.753Z,1.98
2023-02-23T16:54:51.813Z,1.80
2023-02-23T16:57:40.207Z,1.63
2023-02-23T17:00:24.176Z,1.95
2023-02-23T17:03:13.184Z,1.60
2023-02-23T17:05:55.929Z,1.70
2023-02-23T17:08:45.903Z,1.42
2023-02-23T17:11:34.855Z,1.95
2023-02-23T17:14:24.483Z,1.60
2023-02-23T17:17:07.207Z,1.75
2023-02-23T17:19:49.894Z,1.50
2023-02-23T17:22:33.316Z,1.50
2023-02-23T17:25:17.376Z,1.70
2023-02-23T17:28:01.024Z,1.70
2023-02-23T17:30:44.882Z,1.90
2023-02-23T17:33:28.149Z,1.52
2023-02-23T17:36:12.879Z,1.63
2023-02-23T17:38:58.526Z,2.10
2023-02-23T17:41:43.254Z,1.48
2023-02-23T17:44:25.896Z,1.67
2023-02-23T17:47:08.534Z,1.80
2023-02-23T17:49:51.226Z,1.30
2023-02-23T17:52:33.839Z,1.50
2023-02-23T17:55:16.817Z,1.88
2023-02-23T17:58:00.819Z,1.67
2023-02-23T18:00:43.508Z,1.52
2023-02-23T18:03:32.011Z,1.73
2023-02-23T18:06:15.528Z,1.52
2023-02-23T18:08:58.271Z,1.73
2023-02-23T18:11:41.176Z,1.85
2023-02-23T18:14:25.346Z,1.73
2023-02-23T18:17:08.401Z,1.58
2023-02-23T18:19:51.311Z,1.35
2023-02-23T18:22:34.036Z,1.30
2023-02-23T18:25:20.820Z,1.27
2023-02-23T18:28:03.499Z,1.40
2023-02-23T18:30:47.566Z,1.45
2023-02-23T18:33:31.401Z,1.58
2023-02-23T18:36:16.672Z,1.42
2023-02-23T18:38:59.615Z,2.10
2023-02-23T18:41:42.329Z,1.48
2023-02-23T18:44:24.991Z,1.20
2023-02-23T18:47:09.840Z,1.33
2023-02-23T18:49:52.753Z,1.73
2023-02-23T18:52:36.544Z,1.40
2023-02-23T18:55:19.555Z,1.23
2023-02-23T18:58:03.140Z,1.35
2023-02-23T19:00:45.848Z,1.40
2023-02-23T19:03:29.958Z,1.30
2023-02-23T19:06:13.211Z,1.38
2023-02-23T19:08:57.326Z,1.60
2023-02-23T19:11:40.310Z,1.55
2023-02-23T19:14:36.851Z,1.45
2023-02-23T19:17:25.850Z,1.30
2023-02-23T19:20:14.054Z,1.92
2023-02-23T19:22:56.836Z,1.13
2023-02-23T19:25:39.610Z,1.30
2023-02-23T19:28:22.273Z,1.40
2023-02-23T19:31:05.817Z,1.20
2023-02-23T19:33:49.296Z,1.50
2023-02-23T19:36:34.466Z,1.48
2023-02-23T19:39:18.735Z,1.60
2023-02-23T19:42:01.387Z,1.45
2023-02-23T19:44:44.078Z,1.45
2023-02-23T19:47:26.737Z,1.23
2023-02-23T19:50:10.592Z,1.40
2023-02-23T19:52:54.722Z,1.45
2023-02-23T19:55:37.393Z,1.60
2023-02-23T19:58:20.289Z,1.50
2023-02-23T20:01:06.542Z,1.20
2023-02-23T20:03:55.178Z,1.50
2023-02-23T20:06:40.963Z,1.80
2023-02-23T20:09:25.269Z,1.30
2023-02-23T20:12:08.125Z,2.33
2023-02-23T20:14:50.965Z,1.98
2023-02-23T20:17:35.423Z,1.20
2023-02-23T20:20:19.463Z,1.33
2023-02-23T20:23:02.560Z,1.58
2023-02-23T20:25:46.767Z,1.55
2023-02-23T20:28:29.515Z,1.73
2023-02-23T20:31:13.219Z,1.63
2023-02-23T20:33:57.300Z,1.27
2023-02-23T20:36:40.037Z,1.63
2023-02-23T20:39:24.384Z,1.50
2023-02-23T20:42:08.380Z,1.30
2023-02-23T20:44:51.028Z,1.73
2023-02-23T20:47:33.648Z,1.60
2023-02-23T20:50:16.395Z,1.55
2023-02-23T20:52:59.063Z,1.00
2023-02-23T20:55:42.101Z,1.50
2023-02-23T20:58:26.548Z,1.13
2023-02-23T21:01:14.928Z,1.60
2023-02-23T21:03:59.592Z,1.27
2023-02-23T21:06:42.245Z,1.23
2023-02-23T21:09:24.886Z,1.52
2023-02-23T21:12:09.290Z,1.67
2023-02-23T21:14:53.357Z,1.63
2023-02-23T21:17:36.471Z,1.60
2023-02-23T21:20:20.986Z,1.42
2023-02-23T21:23:04.146Z,1.35
2023-02-23T21:25:47.066Z,1.17
2023-02-23T21:28:30.061Z,1.30
2023-02-23T21:31:15.263Z,1.20
2023-02-23T21:33:58.260Z,1.48
2023-02-23T21:36:40.898Z,1.20
2023-02-23T21:39:27.385Z,1.60
2023-02-23T21:42:10.159Z,1.50
2023-02-23T21:44:52.901Z,1.45
2023-02-23T21:47:37.597Z,1.65
2023-02-23T21:50:20.398Z,1.30
2023-02-23T21:53:02.984Z,1.38
2023-02-23T21:55:45.592Z,1.33
2023-02-23T21:58:28.402Z,1.02
2023-02-23T22:01:11.758Z,0.90
2023-02-23T22:03:56.188Z,1.10
2023-02-23T22:06:40.125Z,1.08
2023-02-23T22:09:22.738Z,1.00
2023-02-23T22:12:07.003Z,1.33
2023-02-23T22:14:49.726Z,0.88
2023-02-23T22:17:32.758Z,0.93
2023-02-23T22:20:20.210Z,0.70
2023-02-23T22:23:03.090Z,0.80
2023-02-23T22:25:47.011Z,0.98
2023-02-23T22:28:29.985Z,0.80
2023-02-23T22:31:13.974Z,0.95
2023-02-23T22:33:56.762Z,0.82
2023-02-23T22:36:40.773Z,0.80
2023-02-23T22:39:23.350Z,1.05
2023-02-23T22:42:09.316Z,0.85
2023-02-23T22:44:51.964Z,1.10
2023-02-23T22:47:35.060Z,0.70
2023-02-23T22:50:18.997Z,0.65
2023-02-23T22:53:03.354Z,0.65
2023-02-23T22:55:47.523Z,0.52
2023-02-23T22:58:31.869Z,0.80
2023-02-23T23:01:17.527Z,0.80
2023-02-23T23:04:00.371Z,0.70
2023-02-23T23:06:43.656Z,0.77
2023-02-23T23:09:29.117Z,0.63
2023-02-23T23:12:13.516Z,1.20
2023-02-23T23:14:56.773Z,0.70
2023-02-23T23:17:39.442Z,0.73
2023-02-23T23:20:25.981Z,0.60
2023-02-23T23:23:08.748Z,0.82
2023-02-23T23:25:52.760Z,0.50
2023-02-23T23:28:40.478Z,0.80
2023-02-23T23:31:28.010Z,0.65
2023-02-23T23:34:11.327Z,0.65
2023-02-23T23:36:55.165Z,1.05
2023-02-23T23:39:37.770Z,0.93
2023-02-23T23:42:21.698Z,0.70
2023-02-23T23:45:09.516Z,0.50
2023-02-23T23:47:52.117Z,0.90
2023-02-23T23:50:34.707Z,0.55
2023-02-23T23:53:17.290Z,0.65
2023-02-23T23:56:05.090Z,0.70
2023-02-23T23:58:49.462Z,0.60
